sensor_id;sensor_type;location;lat;lon;timestamp;pressure;altitude;pressure_sealevel;temperature;humidity
10176;BME280;18221;38.704;0.152;2023-03-14T00:06:48;98614.69;;;23.85;22.55
10176;BME280;18221;38.704;0.152;2023-03-14T00:09:16;98606.91;;;23.77;22.71
10176;BME280;18221;38.704;0.152;2023-03-14T00:11:45;98606.09;;;23.47;23.21
10176;BME280;18221;38.704;0.152;2023-03-14T00:14:13;98625.00;;;23.65;23.15
10176;BME280;18221;38.704;0.152;2023-03-14T00:16:46;98627.97;;;23.63;23.50
10176;BME280;18221;38.704;0.152;2023-03-14T00:19:14;98638.19;;;23.50;23.81
10176;BME280;18221;38.704;0.152;2023-03-14T00:21:42;98634.16;;;23.41;24.07
10176;BME280;18221;38.704;0.152;2023-03-14T00:24:12;98648.81;;;23.33;24.39
10176;BME280;18221;38.704;0.152;2023-03-14T00:26:40;98644.53;;;23.44;24.38
10176;BME280;18221;38.704;0.152;2023-03-14T00:29:08;98642.91;;;23.36;24.57
10176;BME280;18221;38.704;0.152;2023-03-14T00:31:36;98656.13;;;23.32;25.00
10176;BME280;18221;38.704;0.152;2023-03-14T00:34:06;98652.91;;;23.24;25.23
10176;BME280;18221;38.704;0.152;2023-03-14T00:36:34;98648.38;;;23.18;25.44
10176;BME280;18221;38.704;0.152;2023-03-14T00:39:02;98648.63;;;23.16;25.40
10176;BME280;18221;38.704;0.152;2023-03-14T00:41:32;98655.31;;;23.14;25.39
10176;BME280;18221;38.704;0.152;2023-03-14T00:44:00;98651.81;;;22.95;26.05
10176;BME280;18221;38.704;0.152;2023-03-14T00:46:28;98659.88;;;23.02;25.79
10176;BME280;18221;38.704;0.152;2023-03-14T00:48:56;98648.38;;;22.88;25.80
10176;BME280;18221;38.704;0.152;2023-03-14T00:51:24;98650.69;;;22.85;25.92
10176;BME280;18221;38.704;0.152;2023-03-14T00:53:53;98657.69;;;22.92;25.92
10176;BME280;18221;38.704;0.152;2023-03-14T00:56:21;98676.19;;;22.77;26.10
10176;BME280;18221;38.704;0.152;2023-03-14T00:58:54;98673.88;;;22.81;25.82
10176;BME280;18221;38.704;0.152;2023-03-14T01:01:23;98680.03;;;22.88;25.71
10176;BME280;18221;38.704;0.152;2023-03-14T01:03:52;98670.47;;;22.67;25.56
10176;BME280;18221;38.704;0.152;2023-03-14T01:06:24;98690.03;;;22.69;25.61
10176;BME280;18221;38.704;0.152;2023-03-14T01:08:53;98685.53;;;22.81;25.50
10176;BME280;18221;38.704;0.152;2023-03-14T01:11:25;98689.72;;;22.77;25.35
10176;BME280;18221;38.704;0.152;2023-03-14T01:13:55;98683.13;;;22.73;25.28
10176;BME280;18221;38.704;0.152;2023-03-14T01:16:26;98684.53;;;22.94;25.58
10176;BME280;18221;38.704;0.152;2023-03-14T01:18:54;98691.75;;;23.00;25.27
10176;BME280;18221;38.704;0.152;2023-03-14T01:21:26;98688.59;;;22.85;25.23
10176;BME280;18221;38.704;0.152;2023-03-14T01:23:56;98717.94;;;22.88;25.21
10176;BME280;18221;38.704;0.152;2023-03-14T01:26:29;98745.91;;;23.00;25.06
10176;BME280;18221;38.704;0.152;2023-03-14T01:28:59;98748.59;;;22.82;25.29
10176;BME280;18221;38.704;0.152;2023-03-14T01:31:28;98754.66;;;22.84;25.30
10176;BME280;18221;38.704;0.152;2023-03-14T01:33:56;98753.38;;;22.86;25.03
10176;BME280;18221;38.704;0.152;2023-03-14T01:36:24;98753.50;;;22.73;25.12
10176;BME280;18221;38.704;0.152;2023-03-14T01:38:52;98735.31;;;22.80;25.39
10176;BME280;18221;38.704;0.152;2023-03-14T01:41:23;98726.38;;;22.55;25.34
10176;BME280;18221;38.704;0.152;2023-03-14T01:43:52;98728.38;;;22.41;25.06
10176;BME280;18221;38.704;0.152;2023-03-14T01:46:28;98733.25;;;22.51;25.44
10176;BME280;18221;38.704;0.152;2023-03-14T01:49:05;98725.31;;;22.56;25.46
10176;BME280;18221;38.704;0.152;2023-03-14T01:51:44;98726.72;;;22.58;25.41
10176;BME280;18221;38.704;0.152;2023-03-14T01:54:20;98714.59;;;22.43;25.81
10176;BME280;18221;38.704;0.152;2023-03-14T01:56:56;98727.59;;;22.09;25.80
10176;BME280;18221;38.704;0.152;2023-03-14T01:59:26;98714.56;;;22.25;25.81
10176;BME280;18221;38.704;0.152;2023-03-14T02:01:58;98734.66;;;22.35;26.02
10176;BME280;18221;38.704;0.152;2023-03-14T02:04:30;98741.00;;;22.23;26.02
10176;BME280;18221;38.704;0.152;2023-03-14T02:07:09;98757.56;;;22.33;25.80
10176;BME280;18221;38.704;0.152;2023-03-14T02:09:40;98749.72;;;22.25;26.02
10176;BME280;18221;38.704;0.152;2023-03-14T02:12:09;98738.50;;;21.96;26.28
10176;BME280;18221;38.704;0.152;2023-03-14T02:14:39;98695.75;;;21.80;26.27
10176;BME280;18221;38.704;0.152;2023-03-14T02:17:10;98701.91;;;21.94;26.39
10176;BME280;18221;38.704;0.152;2023-03-14T02:20:06;98702.81;;;21.81;26.70
10176;BME280;18221;38.704;0.152;2023-03-14T02:22:37;98687.56;;;21.62;26.77
10176;BME280;18221;38.704;0.152;2023-03-14T02:25:12;98678.94;;;21.47;27.39
10176;BME280;18221;38.704;0.152;2023-03-14T02:27:45;98653.59;;;21.48;27.15
10176;BME280;18221;38.704;0.152;2023-03-14T02:30:18;98687.97;;;21.28;27.32
10176;BME280;18221;38.704;0.152;2023-03-14T02:32:48;98651.88;;;21.16;27.51
10176;BME280;18221;38.704;0.152;2023-03-14T02:35:22;98665.63;;;21.14;27.65
10176;BME280;18221;38.704;0.152;2023-03-14T02:37:57;98674.34;;;21.03;27.81
10176;BME280;18221;38.704;0.152;2023-03-14T02:40:28;98664.59;;;21.02;27.62
10176;BME280;18221;38.704;0.152;2023-03-14T02:42:57;98675.00;;;20.99;27.75
10176;BME280;18221;38.704;0.152;2023-03-14T02:45:46;98670.88;;;20.96;27.86
10176;BME280;18221;38.704;0.152;2023-03-14T02:48:19;98663.19;;;20.93;27.87
10176;BME280;18221;38.704;0.152;2023-03-14T02:50:52;98683.50;;;21.09;27.71
10176;BME280;18221;38.704;0.152;2023-03-14T02:53:25;98678.72;;;20.98;27.45
10176;BME280;18221;38.704;0.152;2023-03-14T02:55:54;98685.41;;;20.88;27.93
10176;BME280;18221;38.704;0.152;2023-03-14T02:58:25;98695.34;;;20.94;27.84
10176;BME280;18221;38.704;0.152;2023-03-14T03:00:54;98704.13;;;20.77;27.74
10176;BME280;18221;38.704;0.152;2023-03-14T03:03:22;98697.06;;;20.82;27.91
10176;BME280;18221;38.704;0.152;2023-03-14T03:05:51;98728.03;;;20.67;27.94
10176;BME280;18221;38.704;0.152;2023-03-14T03:08:22;98744.66;;;20.51;28.27
10176;BME280;18221;38.704;0.152;2023-03-14T03:10:51;98740.28;;;20.56;28.37
10176;BME280;18221;38.704;0.152;2023-03-14T03:13:20;98729.31;;;20.51;28.29
10176;BME280;18221;38.704;0.152;2023-03-14T03:15:49;98731.91;;;20.84;28.36
10176;BME280;18221;38.704;0.152;2023-03-14T03:18:17;98732.13;;;20.89;28.06
10176;BME280;18221;38.704;0.152;2023-03-14T03:20:46;98716.38;;;20.79;28.07
10176;BME280;18221;38.704;0.152;2023-03-14T03:23:14;98718.84;;;20.87;27.96
10176;BME280;18221;38.704;0.152;2023-03-14T03:25:42;98738.53;;;20.94;28.10
10176;BME280;18221;38.704;0.152;2023-03-14T03:28:15;98720.28;;;20.90;28.12
10176;BME280;18221;38.704;0.152;2023-03-14T03:30:44;98714.47;;;20.86;28.03
10176;BME280;18221;38.704;0.152;2023-03-14T03:33:13;98719.22;;;20.98;28.10
10176;BME280;18221;38.704;0.152;2023-03-14T03:35:47;98715.50;;;20.99;28.18
10176;BME280;18221;38.704;0.152;2023-03-14T03:38:16;98717.56;;;20.97;28.17
10176;BME280;18221;38.704;0.152;2023-03-14T03:40:46;98712.41;;;20.75;28.68
10176;BME280;18221;38.704;0.152;2023-03-14T03:43:14;98712.03;;;20.65;28.63
10176;BME280;18221;38.704;0.152;2023-03-14T03:45:42;98719.94;;;20.67;28.59
10176;BME280;18221;38.704;0.152;2023-03-14T03:48:12;98717.84;;;20.62;28.58
10176;BME280;18221;38.704;0.152;2023-03-14T03:50:45;98731.56;;;20.61;28.78
10176;BME280;18221;38.704;0.152;2023-03-14T03:53:13;98751.44;;;20.73;28.63
10176;BME280;18221;38.704;0.152;2023-03-14T03:55:41;98768.69;;;20.78;28.66
10176;BME280;18221;38.704;0.152;2023-03-14T03:58:10;98773.00;;;20.86;28.47
10176;BME280;18221;38.704;0.152;2023-03-14T04:00:38;98782.81;;;20.80;28.56
10176;BME280;18221;38.704;0.152;2023-03-14T04:03:06;98792.56;;;20.88;28.36
10176;BME280;18221;38.704;0.152;2023-03-14T04:05:36;98802.50;;;20.81;28.31
10176;BME280;18221;38.704;0.152;2023-03-14T04:08:05;98796.09;;;20.82;28.31
10176;BME280;18221;38.704;0.152;2023-03-14T04:10:35;98808.31;;;20.84;28.47
10176;BME280;18221;38.704;0.152;2023-03-14T04:13:03;98816.19;;;20.92;28.17
10176;BME280;18221;38.704;0.152;2023-03-14T04:15:31;98820.78;;;20.99;28.34
10176;BME280;18221;38.704;0.152;2023-03-14T04:18:00;98823.88;;;20.96;28.04
10176;BME280;18221;38.704;0.152;2023-03-14T04:20:28;98837.38;;;20.96;28.35
10176;BME280;18221;38.704;0.152;2023-03-14T04:22:57;98845.69;;;20.94;28.26
10176;BME280;18221;38.704;0.152;2023-03-14T04:25:26;98842.38;;;20.92;28.09
10176;BME280;18221;38.704;0.152;2023-03-14T04:27:54;98848.16;;;21.02;27.99
10176;BME280;18221;38.704;0.152;2023-03-14T04:30:22;98856.88;;;21.04;28.02
10176;BME280;18221;38.704;0.152;2023-03-14T04:32:50;98861.47;;;21.17;28.00
10176;BME280;18221;38.704;0.152;2023-03-14T04:35:18;98854.81;;;21.13;28.00
10176;BME280;18221;38.704;0.152;2023-03-14T04:37:46;98850.44;;;21.05;28.37
10176;BME280;18221;38.704;0.152;2023-03-14T04:40:17;98843.81;;;21.01;28.01
10176;BME280;18221;38.704;0.152;2023-03-14T04:42:45;98851.09;;;21.01;28.04
10176;BME280;18221;38.704;0.152;2023-03-14T04:45:13;98842.38;;;20.99;28.29
10176;BME280;18221;38.704;0.152;2023-03-14T04:47:41;98841.91;;;21.02;28.18
10176;BME280;18221;38.704;0.152;2023-03-14T04:50:11;98834.88;;;21.01;28.31
10176;BME280;18221;38.704;0.152;2023-03-14T04:52:39;98839.44;;;21.07;28.31
10176;BME280;18221;38.704;0.152;2023-03-14T04:55:07;98849.81;;;20.97;28.30
10176;BME280;18221;38.704;0.152;2023-03-14T04:57:37;98861.47;;;21.10;28.10
10176;BME280;18221;38.704;0.152;2023-03-14T05:00:07;98871.84;;;21.00;28.12
10176;BME280;18221;38.704;0.152;2023-03-14T05:02:36;98870.59;;;21.03;27.99
10176;BME280;18221;38.704;0.152;2023-03-14T05:05:05;98861.25;;;20.99;27.95
10176;BME280;18221;38.704;0.152;2023-03-14T05:07:34;98876.00;;;21.03;28.27
10176;BME280;18221;38.704;0.152;2023-03-14T05:10:03;98885.13;;;20.95;28.17
10176;BME280;18221;38.704;0.152;2023-03-14T05:12:31;98889.50;;;20.89;28.18
10176;BME280;18221;38.704;0.152;2023-03-14T05:15:01;98889.28;;;20.91;28.11
10176;BME280;18221;38.704;0.152;2023-03-14T05:17:32;98899.28;;;20.90;28.33
10176;BME280;18221;38.704;0.152;2023-03-14T05:20:00;98894.91;;;20.89;28.09
10176;BME280;18221;38.704;0.152;2023-03-14T05:22:34;98906.72;;;20.88;28.90
10176;BME280;18221;38.704;0.152;2023-03-14T05:25:02;98908.81;;;20.86;28.71
10176;BME280;18221;38.704;0.152;2023-03-14T05:27:30;98908.59;;;20.81;28.64
10176;BME280;18221;38.704;0.152;2023-03-14T05:30:01;98907.13;;;20.79;28.59
10176;BME280;18221;38.704;0.152;2023-03-14T05:32:29;98903.81;;;20.77;28.83
10176;BME280;18221;38.704;0.152;2023-03-14T05:34:57;98894.47;;;20.73;28.96
10176;BME280;18221;38.704;0.152;2023-03-14T05:37:25;98898.84;;;20.67;28.62
10176;BME280;18221;38.704;0.152;2023-03-14T05:39:54;98892.63;;;20.67;28.74
10176;BME280;18221;38.704;0.152;2023-03-14T05:42:22;98883.91;;;20.65;28.92
10176;BME280;18221;38.704;0.152;2023-03-14T05:44:50;98888.88;;;20.61;29.02
10176;BME280;18221;38.704;0.152;2023-03-14T05:47:20;98901.31;;;20.56;28.48
10176;BME280;18221;38.704;0.152;2023-03-14T05:49:49;98894.28;;;20.61;29.03
10176;BME280;18221;38.704;0.152;2023-03-14T05:52:17;98883.69;;;20.53;28.92
10176;BME280;18221;38.704;0.152;2023-03-14T05:54:46;98886.38;;;20.53;28.71
10176;BME280;18221;38.704;0.152;2023-03-14T05:57:14;98889.25;;;20.45;28.45
10176;BME280;18221;38.704;0.152;2023-03-14T05:59:42;98895.28;;;20.41;28.24
10176;BME280;18221;38.704;0.152;2023-03-14T06:02:10;98902.50;;;20.33;28.39
10176;BME280;18221;38.704;0.152;2023-03-14T06:04:40;98913.72;;;20.37;28.57
10176;BME280;18221;38.704;0.152;2023-03-14T06:07:08;98912.72;;;20.38;28.22
10176;BME280;18221;38.704;0.152;2023-03-14T06:09:36;98907.50;;;20.37;28.59
10176;BME280;18221;38.704;0.152;2023-03-14T06:12:06;98912.50;;;20.33;28.35
10176;BME280;18221;38.704;0.152;2023-03-14T06:14:34;98932.38;;;20.32;27.77
10176;BME280;18221;38.704;0.152;2023-03-14T06:17:02;98944.84;;;20.33;27.86
10176;BME280;18221;38.704;0.152;2023-03-14T06:19:31;98950.44;;;20.31;27.75
10176;BME280;18221;38.704;0.152;2023-03-14T06:22:00;98943.19;;;20.32;28.28
10176;BME280;18221;38.704;0.152;2023-03-14T06:24:28;98937.56;;;20.27;28.15
10176;BME280;18221;38.704;0.152;2023-03-14T06:26:57;98941.88;;;20.21;27.82
10176;BME280;18221;38.704;0.152;2023-03-14T06:29:25;98951.19;;;20.19;27.92
10176;BME280;18221;38.704;0.152;2023-03-14T06:31:53;98953.72;;;20.20;27.67
10176;BME280;18221;38.704;0.152;2023-03-14T06:34:21;98955.16;;;20.23;27.81
10176;BME280;18221;38.704;0.152;2023-03-14T06:36:50;98968.47;;;20.24;27.65
10176;BME280;18221;38.704;0.152;2023-03-14T06:39:19;98967.84;;;20.29;27.34
10176;BME280;18221;38.704;0.152;2023-03-14T06:41:47;98961.84;;;20.33;27.41
10176;BME280;18221;38.704;0.152;2023-03-14T06:44:15;98978.84;;;20.27;26.70
10176;BME280;18221;38.704;0.152;2023-03-14T06:46:44;98987.53;;;20.23;26.40
10176;BME280;18221;38.704;0.152;2023-03-14T06:49:12;98984.66;;;20.31;26.71
10176;BME280;18221;38.704;0.152;2023-03-14T06:51:40;98997.50;;;20.29;26.51
10176;BME280;18221;38.704;0.152;2023-03-14T06:54:08;99002.50;;;20.32;25.93
10176;BME280;18221;38.704;0.152;2023-03-14T06:56:38;98997.97;;;20.39;25.65
10176;BME280;18221;38.704;0.152;2023-03-14T06:59:06;99009.56;;;20.33;25.31
10176;BME280;18221;38.704;0.152;2023-03-14T07:01:34;98993.00;;;20.43;25.71
10176;BME280;18221;38.704;0.152;2023-03-14T07:04:03;98994.47;;;20.45;26.45
10176;BME280;18221;38.704;0.152;2023-03-14T07:06:32;98994.63;;;20.30;25.48
10176;BME280;18221;38.704;0.152;2023-03-14T07:09:00;99001.00;;;20.23;25.67
10176;BME280;18221;38.704;0.152;2023-03-14T07:11:29;98998.88;;;20.12;25.24
10176;BME280;18221;38.704;0.152;2023-03-14T07:13:59;98991.19;;;20.15;25.38
10176;BME280;18221;38.704;0.152;2023-03-14T07:16:27;98992.13;;;20.29;25.41
10176;BME280;18221;38.704;0.152;2023-03-14T07:18:58;98996.09;;;20.33;25.04
10176;BME280;18221;38.704;0.152;2023-03-14T07:21:26;98990.03;;;20.24;24.61
10176;BME280;18221;38.704;0.152;2023-03-14T07:23:54;99005.22;;;20.32;24.44
10176;BME280;18221;38.704;0.152;2023-03-14T07:26:22;99013.53;;;20.37;24.32
10176;BME280;18221;38.704;0.152;2023-03-14T07:28:51;99008.97;;;20.44;24.08
10176;BME280;18221;38.704;0.152;2023-03-14T07:31:20;98998.44;;;20.56;24.38
10176;BME280;18221;38.704;0.152;2023-03-14T07:33:48;99001.97;;;20.56;23.70
10176;BME280;18221;38.704;0.152;2023-03-14T07:36:17;99016.25;;;20.50;23.62
10176;BME280;18221;38.704;0.152;2023-03-14T07:38:45;99018.78;;;20.58;23.57
10176;BME280;18221;38.704;0.152;2023-03-14T07:41:14;99021.88;;;20.55;22.94
10176;BME280;18221;38.704;0.152;2023-03-14T07:43:42;99012.09;;;20.41;23.01
10176;BME280;18221;38.704;0.152;2023-03-14T07:46:10;99022.31;;;20.18;22.05
10176;BME280;18221;38.704;0.152;2023-03-14T07:48:40;99024.47;;;20.29;21.03
10176;BME280;18221;38.704;0.152;2023-03-14T07:51:08;99030.09;;;20.27;21.57
10176;BME280;18221;38.704;0.152;2023-03-14T07:53:36;99031.69;;;20.22;21.54
10176;BME280;18221;38.704;0.152;2023-03-14T07:56:06;99022.78;;;19.87;20.46
10176;BME280;18221;38.704;0.152;2023-03-14T07:58:35;99023.06;;;19.99;20.95
10176;BME280;18221;38.704;0.152;2023-03-14T08:01:03;99020.22;;;20.07;20.76
10176;BME280;18221;38.704;0.152;2023-03-14T08:03:31;99012.31;;;20.05;20.72
10176;BME280;18221;38.704;0.152;2023-03-14T08:06:01;99018.16;;;20.15;20.33
10176;BME280;18221;38.704;0.152;2023-03-14T08:08:29;99002.28;;;19.93;20.33
10176;BME280;18221;38.704;0.152;2023-03-14T08:11:03;98998.59;;;19.94;20.31
10176;BME280;18221;38.704;0.152;2023-03-14T08:13:32;99013.13;;;19.99;20.28
10176;BME280;18221;38.704;0.152;2023-03-14T08:16:00;99028.16;;;19.87;19.85
10176;BME280;18221;38.704;0.152;2023-03-14T08:18:29;99045.78;;;19.83;19.84
10176;BME280;18221;38.704;0.152;2023-03-14T08:20:57;99037.50;;;19.85;19.79
10176;BME280;18221;38.704;0.152;2023-03-14T08:23:27;99045.81;;;19.90;19.96
10176;BME280;18221;38.704;0.152;2023-03-14T08:25:55;99033.09;;;19.77;20.17
10176;BME280;18221;38.704;0.152;2023-03-14T08:28:23;99024.47;;;19.95;19.81
10176;BME280;18221;38.704;0.152;2023-03-14T08:30:57;99010.00;;;20.02;20.11
10176;BME280;18221;38.704;0.152;2023-03-14T08:33:26;99015.16;;;19.97;20.15
10176;BME280;18221;38.704;0.152;2023-03-14T08:35:55;99016.22;;;19.96;20.21
10176;BME280;18221;38.704;0.152;2023-03-14T08:38:26;99031.00;;;20.07;20.04
10176;BME280;18221;38.704;0.152;2023-03-14T08:40:57;99045.88;;;20.03;20.17
10176;BME280;18221;38.704;0.152;2023-03-14T08:43:26;99053.25;;;20.22;20.18
10176;BME280;18221;38.704;0.152;2023-03-14T08:45:57;99062.56;;;20.19;19.59
10176;BME280;18221;38.704;0.152;2023-03-14T08:48:26;99076.38;;;20.38;20.06
10176;BME280;18221;38.704;0.152;2023-03-14T08:50:56;99065.53;;;20.24;20.00
10176;BME280;18221;38.704;0.152;2023-03-14T08:53:26;99067.63;;;20.29;19.80
10176;BME280;18221;38.704;0.152;2023-03-14T08:55:55;99082.84;;;20.43;20.31
10176;BME280;18221;38.704;0.152;2023-03-14T08:58:24;99090.78;;;20.58;19.46
10176;BME280;18221;38.704;0.152;2023-03-14T09:00:52;99101.34;;;20.53;19.97
10176;BME280;18221;38.704;0.152;2023-03-14T09:03:20;99102.03;;;20.61;19.90
10176;BME280;18221;38.704;0.152;2023-03-14T09:05:49;99089.94;;;20.57;19.79
10176;BME280;18221;38.704;0.152;2023-03-14T09:08:18;99083.56;;;20.71;20.03
10176;BME280;18221;38.704;0.152;2023-03-14T09:10:48;99082.38;;;20.80;20.01
10176;BME280;18221;38.704;0.152;2023-03-14T09:13:16;99081.19;;;20.96;19.60
10176;BME280;18221;38.704;0.152;2023-03-14T09:15:45;99081.53;;;20.86;19.52
10176;BME280;18221;38.704;0.152;2023-03-14T09:18:18;99091.72;;;20.91;19.37
10176;BME280;18221;38.704;0.152;2023-03-14T09:20:46;99094.78;;;20.68;19.35
10176;BME280;18221;38.704;0.152;2023-03-14T09:23:14;99098.25;;;20.62;19.37
10176;BME280;18221;38.704;0.152;2023-03-14T09:25:43;99112.50;;;20.90;19.61
10176;BME280;18221;38.704;0.152;2023-03-14T09:28:13;99117.06;;;20.90;19.19
10176;BME280;18221;38.704;0.152;2023-03-14T09:30:41;99122.88;;;20.93;19.11
10176;BME280;18221;38.704;0.152;2023-03-14T09:33:09;99124.72;;;20.86;19.02
10176;BME280;18221;38.704;0.152;2023-03-14T09:35:37;99123.94;;;20.92;18.91
10176;BME280;18221;38.704;0.152;2023-03-14T09:38:06;99114.78;;;20.93;18.90
10176;BME280;18221;38.704;0.152;2023-03-14T09:40:35;99121.47;;;21.04;19.77
10176;BME280;18221;38.704;0.152;2023-03-14T09:43:05;99114.47;;;21.23;19.34
10176;BME280;18221;38.704;0.152;2023-03-14T09:45:38;99111.16;;;21.21;18.91
10176;BME280;18221;38.704;0.152;2023-03-14T09:48:15;99100.16;;;21.29;18.29
10176;BME280;18221;38.704;0.152;2023-03-14T09:50:48;99103.25;;;21.26;18.92
10176;BME280;18221;38.704;0.152;2023-03-14T09:53:21;99084.16;;;21.27;19.14
10176;BME280;18221;38.704;0.152;2023-03-14T09:55:52;99083.72;;;21.30;19.14
10176;BME280;18221;38.704;0.152;2023-03-14T09:58:24;99089.06;;;21.04;18.97
10176;BME280;18221;38.704;0.152;2023-03-14T10:00:56;99102.56;;;21.04;18.23
10176;BME280;18221;38.704;0.152;2023-03-14T10:03:32;99098.13;;;20.83;18.75
10176;BME280;18221;38.704;0.152;2023-03-14T10:06:01;99099.78;;;20.71;19.07
10176;BME280;18221;38.704;0.152;2023-03-14T10:08:30;99086.09;;;20.79;18.91
10176;BME280;18221;38.704;0.152;2023-03-14T10:10:59;99088.19;;;20.84;19.10
10176;BME280;18221;38.704;0.152;2023-03-14T10:13:28;99087.78;;;20.93;19.59
10176;BME280;18221;38.704;0.152;2023-03-14T10:16:02;99096.19;;;21.25;19.16
10176;BME280;18221;38.704;0.152;2023-03-14T10:18:33;99103.88;;;21.28;19.40
10176;BME280;18221;38.704;0.152;2023-03-14T10:21:09;99098.06;;;21.18;19.41
10176;BME280;18221;38.704;0.152;2023-03-14T10:23:45;99097.38;;;21.03;19.54
10176;BME280;18221;38.704;0.152;2023-03-14T10:26:16;99101.16;;;21.08;19.64
10176;BME280;18221;38.704;0.152;2023-03-14T10:28:50;99099.09;;;21.17;19.65
10176;BME280;18221;38.704;0.152;2023-03-14T10:31:25;99104.28;;;21.25;19.45
10176;BME280;18221;38.704;0.152;2023-03-14T10:34:02;99091.84;;;21.24;19.59
10176;BME280;18221;38.704;0.152;2023-03-14T10:36:32;99095.19;;;21.32;19.42
10176;BME280;18221;38.704;0.152;2023-03-14T10:39:34;99097.06;;;21.32;19.47
10176;BME280;18221;38.704;0.152;2023-03-14T10:42:14;99086.66;;;21.42;19.70
10176;BME280;18221;38.704;0.152;2023-03-14T10:44:43;99082.91;;;21.36;19.66
10176;BME280;18221;38.704;0.152;2023-03-14T10:47:20;99067.34;;;21.32;19.54
10176;BME280;18221;38.704;0.152;2023-03-14T10:49:50;99068.38;;;21.31;19.67
10176;BME280;18221;38.704;0.152;2023-03-14T10:52:23;99068.78;;;21.54;19.96
10176;BME280;18221;38.704;0.152;2023-03-14T10:54:58;99076.25;;;21.78;19.91
10176;BME280;18221;38.704;0.152;2023-03-14T10:57:27;99076.47;;;21.70;19.23
10176;BME280;18221;38.704;0.152;2023-03-14T10:59:56;99091.63;;;21.78;19.63
10176;BME280;18221;38.704;0.152;2023-03-14T11:03:01;99094.56;;;21.76;19.43
10176;BME280;18221;38.704;0.152;2023-03-14T11:05:40;99103.31;;;21.91;19.51
10176;BME280;18221;38.704;0.152;2023-03-14T11:08:19;99099.09;;;22.28;19.75
10176;BME280;18221;38.704;0.152;2023-03-14T11:10:54;99103.69;;;22.21;19.44
10176;BME280;18221;38.704;0.152;2023-03-14T11:13:32;99089.75;;;22.18;19.59
10176;BME280;18221;38.704;0.152;2023-03-14T11:16:12;99086.53;;;22.40;19.10
10176;BME280;18221;38.704;0.152;2023-03-14T11:19:21;99087.75;;;22.57;19.21
10176;BME280;18221;38.704;0.152;2023-03-14T11:22:00;99068.84;;;22.44;19.07
10176;BME280;18221;38.704;0.152;2023-03-14T11:24:59;99081.56;;;22.37;18.75
10176;BME280;18221;38.704;0.152;2023-03-14T11:27:43;99081.69;;;22.62;19.21
10176;BME280;18221;38.704;0.152;2023-03-14T11:30:23;99075.41;;;22.74;19.03
10176;BME280;18221;38.704;0.152;2023-03-14T11:33:01;99077.03;;;22.82;19.35
10176;BME280;18221;38.704;0.152;2023-03-14T11:35:38;99079.25;;;22.92;18.70
10176;BME280;18221;38.704;0.152;2023-03-14T11:38:29;99086.25;;;23.12;18.73
10176;BME280;18221;38.704;0.152;2023-03-14T11:40:59;99082.47;;;23.13;18.79
10176;BME280;18221;38.704;0.152;2023-03-14T11:43:30;99086.38;;;23.24;18.76
10176;BME280;18221;38.704;0.152;2023-03-14T11:46:09;99083.34;;;23.07;18.84
10176;BME280;18221;38.704;0.152;2023-03-14T11:48:56;99087.09;;;23.06;19.17
10176;BME280;18221;38.704;0.152;2023-03-14T11:51:32;99084.19;;;23.39;18.38
10176;BME280;18221;38.704;0.152;2023-03-14T11:54:11;99082.00;;;23.23;18.70
10176;BME280;18221;38.704;0.152;2023-03-14T11:56:50;99069.44;;;23.28;19.69
10176;BME280;18221;38.704;0.152;2023-03-14T11:59:28;99066.47;;;23.43;19.56
10176;BME280;18221;38.704;0.152;2023-03-14T12:02:02;99071.91;;;23.37;19.30
10176;BME280;18221;38.704;0.152;2023-03-14T12:05:01;99056.94;;;23.59;19.25
10176;BME280;18221;38.704;0.152;2023-03-14T12:07:48;99056.78;;;23.54;19.64
10176;BME280;18221;38.704;0.152;2023-03-14T12:10:30;99039.09;;;23.20;18.87
10176;BME280;18221;38.704;0.152;2023-03-14T12:13:07;99060.63;;;23.40;19.12
10176;BME280;18221;38.704;0.152;2023-03-14T12:15:46;99061.81;;;23.50;19.71
10176;BME280;18221;38.704;0.152;2023-03-14T12:18:26;99071.22;;;23.72;19.55
10176;BME280;18221;38.704;0.152;2023-03-14T12:20:58;99058.84;;;24.01;19.56
10176;BME280;18221;38.704;0.152;2023-03-14T12:23:37;99072.44;;;24.19;19.42
10176;BME280;18221;38.704;0.152;2023-03-14T12:26:21;99076.06;;;24.31;20.30
10176;BME280;18221;38.704;0.152;2023-03-14T12:28:52;99064.47;;;24.24;20.12
10176;BME280;18221;38.704;0.152;2023-03-14T12:31:42;99061.75;;;24.24;20.55
10176;BME280;18221;38.704;0.152;2023-03-14T12:34:31;99056.53;;;24.41;20.34
10176;BME280;18221;38.704;0.152;2023-03-14T12:37:19;99038.25;;;24.66;21.24
10176;BME280;18221;38.704;0.152;2023-03-14T12:40:15;99037.88;;;24.81;20.75
10176;BME280;18221;38.704;0.152;2023-03-14T12:42:57;99028.19;;;24.85;19.84
10176;BME280;18221;38.704;0.152;2023-03-14T12:45:30;99026.16;;;24.50;19.86
10176;BME280;18221;38.704;0.152;2023-03-14T12:48:09;99021.25;;;24.41;19.20
10176;BME280;18221;38.704;0.152;2023-03-14T12:50:46;99018.84;;;24.15;18.87
10176;BME280;18221;38.704;0.152;2023-03-14T12:53:43;99023.59;;;24.01;18.28
10176;BME280;18221;38.704;0.152;2023-03-14T12:56:27;99001.28;;;24.17;18.63
10176;BME280;18221;38.704;0.152;2023-03-14T12:59:30;99015.13;;;24.64;19.07
10176;BME280;18221;38.704;0.152;2023-03-14T13:02:13;99003.41;;;24.81;18.84
10176;BME280;18221;38.704;0.152;2023-03-14T13:04:49;99001.63;;;24.57;17.73
10176;BME280;18221;38.704;0.152;2023-03-14T13:08:03;99000.84;;;24.98;18.60
10176;BME280;18221;38.704;0.152;2023-03-14T13:10:42;99000.41;;;25.24;18.73
10176;BME280;18221;38.704;0.152;2023-03-14T13:13:21;98993.13;;;25.36;17.53
10176;BME280;18221;38.704;0.152;2023-03-14T13:15:54;98981.91;;;25.44;18.79
10176;BME280;18221;38.704;0.152;2023-03-14T13:18:32;98984.34;;;25.34;17.94
10176;BME280;18221;38.704;0.152;2023-03-14T13:21:06;98988.13;;;25.10;17.39
10176;BME280;18221;38.704;0.152;2023-03-14T13:23:38;98982.53;;;24.93;18.11
10176;BME280;18221;38.704;0.152;2023-03-14T13:26:14;98991.91;;;25.09;17.77
10176;BME280;18221;38.704;0.152;2023-03-14T13:28:44;98986.91;;;25.06;17.40
10176;BME280;18221;38.704;0.152;2023-03-14T13:31:22;98977.16;;;25.28;17.71